Time;durP1;ratioP1;P1;durP2;ratioP2;P2;SDS_P1;SDS_P2;PMS_P1;PMS_P2;Temp;Humidity;BMP_temperature;BMP_pressure;BME280_temperature;BME280_humidity;BME280_pressure;Samples;Min_cycle;Max_cycle;Signal;HPM_P1;HPM_P2
2021/08/11 00:01:07;;;;;;;6.95;4.35;;;;;;;21.62;77.98;101144.06;1746147;82;20928;-76
2021/08/11 00:03:33;;;;;;;8.98;4.40;;;;;;;21.63;78.01;101140.42;1746535;82;21532;-77
2021/08/11 00:06:02;;;;;;;6.30;4.12;;;;;;;21.64;78.04;101144.72;1746257;82;20911;-76
2021/08/11 00:08:28;;;;;;;5.58;4.35;;;;;;;21.65;78.05;101144.23;1746529;82;20992;-77
2021/08/11 00:10:58;;;;;;;5.45;4.53;;;;;;;21.63;78.14;101144.38;1746337;82;20975;-77
2021/08/11 00:13:24;;;;;;;7.00;4.87;;;;;;;21.60;78.24;101148.66;1746460;82;21020;-82
2021/08/11 00:15:52;;;;;;;7.97;4.30;;;;;;;21.58;78.44;101143.22;1746645;82;21022;-79
2021/08/11 00:18:21;;;;;;;8.15;4.60;;;;;;;21.57;78.49;101148.16;1746505;82;21387;-78
2021/08/11 00:20:47;;;;;;;6.65;4.80;;;;;;;21.57;78.61;101141.06;1746764;82;20892;-79
2021/08/11 00:23:15;;;;;;;5.62;4.20;;;;;;;21.57;78.66;101140.23;1747559;82;21039;-84
2021/08/11 00:25:41;;;;;;;7.70;5.05;;;;;;;21.56;78.76;101143.88;1747606;82;20940;-76
2021/08/11 00:28:08;;;;;;;5.60;4.33;;;;;;;21.53;78.89;101145.03;1746817;82;21495;-85
2021/08/11 00:30:35;;;;;;;7.37;4.37;;;;;;;21.51;79.04;101139.55;1746447;82;20996;-82
2021/08/11 00:33:01;;;;;;;9.10;4.85;;;;;;;21.51;79.15;101134.27;1746324;82;21043;-80
2021/08/11 00:35:28;;;;;;;5.00;4.50;;;;;;;21.50;79.18;101132.16;1746246;82;21016;-77
2021/08/11 00:37:56;;;;;;;9.78;4.60;;;;;;;21.47;79.30;101140.88;1746294;82;21046;-78
2021/08/11 00:40:24;;;;;;;8.43;4.30;;;;;;;21.46;79.44;101139.22;1746194;82;21143;-78
2021/08/11 00:42:53;;;;;;;5.67;4.58;;;;;;;21.42;79.63;101147.12;1751932;81;21000;-76
2021/08/11 00:45:20;;;;;;;6.42;4.28;;;;;;;21.37;79.89;101137.55;1746511;82;21023;-79
2021/08/11 00:47:52;;;;;;;6.42;4.10;;;;;;;21.34;80.03;101135.22;1746259;82;21462;-78
2021/08/11 00:50:20;;;;;;;6.50;4.50;;;;;;;21.34;80.16;101137.38;1746453;82;21447;-79
2021/08/11 00:52:48;;;;;;;10.70;4.62;;;;;;;21.34;80.33;101133.91;1727709;82;21993;-79
2021/08/11 00:55:15;;;;;;;8.00;4.67;;;;;;;21.29;80.39;101131.72;1746087;82;21560;-80
2021/08/11 00:57:44;;;;;;;6.70;4.75;;;;;;;21.25;80.64;101125.10;1746329;81;20936;-81
2021/08/11 01:00:13;;;;;;;7.55;4.53;;;;;;;21.22;80.82;101120.14;1746474;82;21499;-76
2021/08/11 01:02:40;;;;;;;12.43;5.03;;;;;;;21.23;80.92;101127.08;1746304;82;20934;-77
2021/08/11 01:05:07;;;;;;;7.22;4.90;;;;;;;21.23;80.94;101118.33;1746504;82;21649;-75
2021/08/11 01:07:35;;;;;;;6.65;4.67;;;;;;;21.24;80.92;101116.87;1746460;82;21471;-78
2021/08/11 01:10:04;;;;;;;9.70;5.10;;;;;;;21.22;80.97;101115.37;1746509;82;21501;-75
2021/08/11 01:12:33;;;;;;;12.98;5.58;;;;;;;21.21;81.03;101118.51;1746473;82;21041;-78
2021/08/11 01:15:00;;;;;;;6.95;4.78;;;;;;;21.20;81.12;101116.84;1746321;80;21034;-78
2021/08/11 01:17:29;;;;;;;11.25;5.30;;;;;;;21.19;81.10;101115.18;1746216;82;21963;-79
2021/08/11 01:19:56;;;;;;;8.60;4.60;;;;;;;21.16;81.21;101121.27;1746210;82;21632;-80
2021/08/11 01:22:40;;;;;;;7.35;4.87;;;;;;;21.13;81.37;101118.45;1708852;83;21000;-82
2021/08/11 01:25:36;;;;;;;7.20;4.60;;;;;;;21.08;81.46;101116.27;1722530;82;20996;-81
2021/08/11 01:28:53;;;;;;;6.67;4.37;;;;;;;21.04;81.63;101122.84;1725107;82;20992;-78
2021/08/11 01:31:55;;;;;;;7.70;4.62;;;;;;;20.97;81.99;101124.94;1738443;82;21487;-76
2021/08/11 01:34:44;;;;;;;6.03;4.40;;;;;;;20.90;82.29;101119.98;1738789;82;20976;-75
2021/08/11 01:37:23;;;;;;;10.53;4.87;;;;;;;20.87;82.56;101118.94;1737943;82;20967;-76
2021/08/11 01:39:52;;;;;;;5.25;4.75;;;;;;;20.86;82.54;101121.27;1737244;82;20969;-76
2021/08/11 01:42:30;;;;;;;10.35;4.78;;;;;;;20.85;82.61;101123.07;1737148;82;21067;-74
2021/08/11 01:45:06;;;;;;;7.15;4.75;;;;;;;20.84;82.62;101128.00;1737459;82;21072;-74
2021/08/11 01:47:57;;;;;;;9.78;4.95;;;;;;;20.84;82.59;101129.32;1737626;82;20916;-78
2021/08/11 01:50:25;;;;;;;5.45;4.42;;;;;;;20.87;82.47;101129.49;1719013;82;20975;-77
2021/08/11 01:52:51;;;;;;;7.85;4.70;;;;;;;20.86;82.42;101131.81;1737521;82;21463;-77
2021/08/11 01:55:18;;;;;;;5.37;4.40;;;;;;;20.85;82.38;101130.16;1737529;82;20932;-75
2021/08/11 01:57:51;;;;;;;11.60;4.58;;;;;;;20.82;82.41;101133.10;1737152;82;21209;-75
2021/08/11 02:00:22;;;;;;;8.30;4.37;;;;;;;20.78;82.61;101133.07;1737345;82;21721;-77
2021/08/11 02:02:49;;;;;;;6.58;4.37;;;;;;;20.73;82.66;101127.45;1718432;82;20896;-78
2021/08/11 02:05:20;;;;;;;8.08;4.40;;;;;;;20.72;82.70;101126.62;1717682;82;20905;-74
2021/08/11 02:07:48;;;;;;;5.85;4.10;;;;;;;20.71;82.72;101133.38;1718809;82;21522;-74
2021/08/11 02:10:17;;;;;;;8.30;4.78;;;;;;;20.71;82.70;101125.47;1718817;82;21460;-74
2021/08/11 02:12:45;;;;;;;8.03;4.83;;;;;;;20.70;82.67;101127.27;1737198;82;21558;-73
2021/08/11 02:15:12;;;;;;;5.60;4.35;;;;;;;20.69;82.67;101132.69;1737784;82;20940;-76
2021/08/11 02:17:41;;;;;;;11.15;4.70;;;;;;;20.66;82.75;101127.23;1737976;82;20945;-81
2021/08/11 02:20:10;;;;;;;6.70;4.53;;;;;;;20.63;82.84;101130.67;1737777;82;21651;-76
2021/08/11 02:22:38;;;;;;;7.60;4.15;;;;;;;20.59;82.92;101128.34;1737861;82;21098;-77
2021/08/11 02:25:10;;;;;;;5.53;4.12;;;;;;;20.56;82.98;101127.34;1737798;82;20976;-76
2021/08/11 02:27:51;;;;;;;7.97;4.35;;;;;;;20.54;83.07;101125.84;1737888;82;21004;-77
2021/08/11 02:30:23;;;;;;;4.60;4.08;;;;;;;20.50;83.15;101131.91;1732068;82;21063;-75
2021/08/11 02:33:01;;;;;;;6.33;4.62;;;;;;;20.46;83.33;101138.95;1746525;82;21118;-82
2021/08/11 02:35:35;;;;;;;6.72;4.28;;;;;;;20.43;83.38;101136.62;1727333;82;21910;-76
2021/08/11 02:38:07;;;;;;;6.12;4.30;;;;;;;20.40;83.54;101136.44;1746181;82;21090;-79
2021/08/11 02:40:41;;;;;;;7.25;4.15;;;;;;;20.38;83.63;101141.05;1748274;82;20920;-77
2021/08/11 02:43:25;;;;;;;4.97;3.80;;;;;;;20.35;83.65;101133.45;1747851;82;20931;-75
2021/08/11 02:45:59;;;;;;;8.40;4.55;;;;;;;20.35;83.64;101138.72;1728993;82;20849;-78
2021/08/11 02:48:29;;;;;;;8.20;4.87;;;;;;;20.32;83.76;101135.56;1728088;82;21130;-79
2021/08/11 02:50:56;;;;;;;6.67;4.37;;;;;;;20.25;83.98;101132.67;1746326;82;20916;-78
2021/08/11 02:53:24;;;;;;;6.17;4.22;;;;;;;20.22;84.22;101134.78;1746170;82;20995;-78
2021/08/11 02:55:53;;;;;;;5.55;4.20;;;;;;;20.19;84.46;101135.08;1746328;82;21482;-81
2021/08/11 02:58:21;;;;;;;11.45;4.58;;;;;;;20.16;84.56;101137.53;1727694;82;21506;-74
2021/08/11 03:00:50;;;;;;;8.18;4.17;;;;;;;20.16;84.62;101140.17;1746152;82;21195;-73
2021/08/11 03:03:17;;;;;;;6.72;3.98;;;;;;;20.18;84.61;101142.64;1746647;82;20916;-80
2021/08/11 03:05:44;;;;;;;4.67;4.08;;;;;;;20.16;84.66;101143.30;1746718;82;20920;-77
2021/08/11 03:08:13;;;;;;;6.75;4.33;;;;;;;20.15;84.71;101141.14;1703903;82;21034;-76
2021/08/11 03:10:40;;;;;;;6.30;4.17;;;;;;;20.16;84.75;101145.92;1752356;81;20876;-75
2021/08/11 03:13:10;;;;;;;11.70;5.65;;;;;;;20.16;84.72;101147.25;1746635;82;21108;-82
2021/08/11 03:15:38;;;;;;;12.50;5.78;;;;;;;20.18;84.72;101146.59;1746593;82;20928;-79
2021/08/11 03:18:05;;;;;;;5.92;4.92;;;;;;;20.17;84.70;101151.03;1746629;82;20979;-81
2021/08/11 03:20:32;;;;;;;6.62;4.83;;;;;;;20.17;84.74;101149.71;1746254;82;21339;-79
2021/08/11 03:22:59;;;;;;;10.82;4.37;;;;;;;20.16;84.79;101149.88;1746281;82;21013;-76
2021/08/11 03:25:28;;;;;;;4.92;4.42;;;;;;;20.14;84.90;101153.14;1746262;82;21153;-75
2021/08/11 03:27:55;;;;;;;5.58;4.30;;;;;;;20.17;84.95;101155.47;1746534;82;21015;-81
2021/08/11 03:30:23;;;;;;;5.65;4.50;;;;;;;20.17;84.89;101161.58;1746374;82;20955;-76
2021/08/11 03:32:50;;;;;;;5.75;4.75;;;;;;;20.20;84.91;101161.27;1746714;82;20885;-79
2021/08/11 03:35:16;;;;;;;8.78;4.33;;;;;;;20.22;84.80;101165.09;1727223;82;21047;-83
2021/08/11 03:37:43;;;;;;;6.80;5.25;;;;;;;20.21;84.68;101166.89;1746283;82;21135;-80
2021/08/11 03:40:12;;;;;;;7.05;5.10;;;;;;;20.20;84.65;101166.54;1746714;82;20992;-80
2021/08/11 03:42:39;;;;;;;8.05;4.78;;;;;;;20.18;84.71;101164.55;1727240;82;21482;-77
2021/08/11 03:45:06;;;;;;;10.15;4.25;;;;;;;20.18;84.80;101165.87;1746212;82;20892;-73
2021/08/11 03:47:33;;;;;;;7.75;4.70;;;;;;;20.18;84.93;101164.55;1746715;82;20967;-73
2021/08/11 03:50:01;;;;;;;8.38;4.67;;;;;;;20.18;85.00;101160.60;1746553;82;21534;-78
2021/08/11 03:52:28;;;;;;;7.97;4.45;;;;;;;20.19;85.06;101166.22;1746172;82;21003;-75
2021/08/11 03:54:55;;;;;;;6.47;4.72;;;;;;;20.21;85.00;101161.62;1727231;82;21070;-72
2021/08/11 03:57:21;;;;;;;6.60;4.47;;;;;;;20.23;85.00;101161.48;1746347;82;21462;-73
2021/08/11 03:59:48;;;;;;;5.42;4.50;;;;;;;20.27;85.01;101170.75;1746524;82;20884;-77
2021/08/11 04:02:15;;;;;;;8.53;5.05;;;;;;;20.31;84.88;101166.36;1746139;82;21617;-76
2021/08/11 04:04:41;;;;;;;8.50;5.08;;;;;;;20.35;84.75;101172.98;1746463;82;20884;-73
2021/08/11 04:07:09;;;;;;;9.10;4.80;;;;;;;20.39;84.64;101176.95;1746651;82;21546;-74
2021/08/11 04:09:36;;;;;;;7.10;4.42;;;;;;;20.43;84.49;101178.31;1746575;82;20968;-77
2021/08/11 04:12:03;;;;;;;6.75;4.50;;;;;;;20.48;84.42;101178.70;1746184;82;21054;-75
2021/08/11 04:14:29;;;;;;;8.05;4.58;;;;;;;20.54;84.27;101185.17;1747111;82;21143;-77
2021/08/11 04:16:57;;;;;;;6.22;4.72;;;;;;;20.58;84.04;101182.06;1748016;82;21002;-75
2021/08/11 04:19:24;;;;;;;6.05;4.78;;;;;;;20.64;83.74;101175.85;1746025;82;20940;-71
2021/08/11 04:21:52;;;;;;;7.28;4.83;;;;;;;20.68;83.53;101175.38;1746129;82;20963;-74
2021/08/11 04:24:18;;;;;;;8.03;4.70;;;;;;;20.73;83.29;101182.84;1746292;82;21568;-74
2021/08/11 04:26:45;;;;;;;9.78;4.83;;;;;;;20.81;83.06;101177.60;1746345;82;21777;-79
2021/08/11 04:29:11;;;;;;;10.08;4.60;;;;;;;20.88;82.74;101181.28;1746114;82;21006;-72
2021/08/11 04:31:37;;;;;;;9.58;5.05;;;;;;;20.94;82.64;101185.45;1745862;82;21007;-74
2021/08/11 04:34:03;;;;;;;6.75;4.67;;;;;;;21.02;82.40;101185.52;1745842;82;20991;-73
2021/08/11 04:36:30;;;;;;;7.75;4.62;;;;;;;21.11;82.13;101186.41;1746148;82;21350;-73
2021/08/11 04:38:56;;;;;;;7.40;4.37;;;;;;;21.19;81.52;101189.61;1746127;82;21148;-72
2021/08/11 04:41:23;;;;;;;9.45;4.83;;;;;;;21.26;80.96;101194.08;1746117;82;21530;-80
2021/08/11 04:43:49;;;;;;;7.03;4.60;;;;;;;21.35;80.19;101193.13;1727198;82;21427;-76
2021/08/11 04:46:15;;;;;;;10.10;4.35;;;;;;;21.43;79.62;101191.03;1746405;82;20928;-74
2021/08/11 04:48:43;;;;;;;7.55;4.78;;;;;;;21.50;79.22;101191.57;1746598;82;21015;-77
2021/08/11 04:51:09;;;;;;;8.70;4.65;;;;;;;21.59;78.34;101189.78;1747525;82;21148;-74
2021/08/11 04:53:35;;;;;;;12.90;4.72;;;;;;;21.69;77.46;101190.48;1747068;82;21059;-76
2021/08/11 04:56:02;;;;;;;7.05;4.33;;;;;;;21.79;76.89;101185.89;1746284;82;21474;-80
2021/08/11 04:58:28;;;;;;;6.58;4.60;;;;;;;21.89;75.95;101189.23;1746015;82;21663;-75
2021/08/11 05:00:56;;;;;;;5.97;4.75;;;;;;;21.97;74.69;101194.55;1746221;82;20920;-77
2021/08/11 05:03:22;;;;;;;10.20;4.90;;;;;;;22.07;74.34;101190.44;1746168;82;21143;-73
2021/08/11 05:05:48;;;;;;;7.65;4.10;;;;;;;22.15;74.29;101185.16;1746047;82;20849;-77
2021/08/11 05:08:15;;;;;;;12.13;4.33;;;;;;;22.23;73.26;101189.64;1746235;82;21031;-75
2021/08/11 05:10:41;;;;;;;10.00;4.80;;;;;;;22.32;72.42;101191.30;1746130;82;20895;-73
2021/08/11 05:13:07;;;;;;;10.03;4.60;;;;;;;22.42;71.94;101194.61;1746267;82;20939;-81
2021/08/11 05:15:34;;;;;;;8.98;4.12;;;;;;;22.50;71.15;101191.95;1746204;82;21210;-81
2021/08/11 05:18:01;;;;;;;7.55;4.37;;;;;;;22.59;69.68;101198.40;1746057;82;21531;-80
2021/08/11 05:20:28;;;;;;;7.65;3.92;;;;;;;22.69;69.16;101198.78;1746524;82;20951;-80
2021/08/11 05:22:55;;;;;;;5.65;3.70;;;;;;;22.77;67.90;101192.14;1725366;82;20913;-76
2021/08/11 05:25:21;;;;;;;6.00;3.95;;;;;;;22.82;67.43;101189.31;1725429;83;21044;-81
2021/08/11 05:27:48;;;;;;;9.25;4.50;;;;;;;22.89;66.75;101192.95;1725553;83;21143;-77
2021/08/11 05:30:15;;;;;;;7.10;3.95;;;;;;;22.98;66.03;101197.73;1725287;82;21427;-75
2021/08/11 05:32:41;;;;;;;8.68;4.03;;;;;;;23.05;66.40;101199.55;1725517;83;21511;-79
2021/08/11 05:35:09;;;;;;;11.65;4.10;;;;;;;23.14;65.02;101198.52;1725526;83;20909;-73
2021/08/11 05:37:36;;;;;;;6.85;4.53;;;;;;;23.25;64.58;101195.19;1725693;81;21483;-75
2021/08/11 05:40:04;;;;;;;7.90;3.72;;;;;;;23.33;64.33;101197.80;1725459;83;21530;-73
2021/08/11 05:42:30;;;;;;;8.88;4.12;;;;;;;23.40;63.47;101198.80;1725458;83;21426;-73
2021/08/11 05:44:57;;;;;;;5.58;3.47;;;;;;;23.47;62.87;101196.64;1725111;83;21019;-77
2021/08/11 05:47:23;;;;;;;9.75;4.95;;;;;;;23.56;61.77;101191.62;1725275;81;21015;-78
2021/08/11 05:49:49;;;;;;;10.35;3.80;;;;;;;23.68;60.47;101186.75;1724253;81;20920;-77
2021/08/11 05:52:19;;;;;;;5.45;3.27;;;;;;;23.79;60.16;101191.68;1745973;82;21803;-76
2021/08/11 05:54:59;;;;;;;6.22;4.20;;;;;;;23.90;59.47;101191.80;1725327;81;21421;-75
2021/08/11 05:57:30;;;;;;;10.75;3.83;;;;;;;24.00;58.96;101185.75;1725639;83;20987;-83
2021/08/11 05:59:59;;;;;;;9.08;4.10;;;;;;;24.07;58.53;101195.48;1725683;83;20952;-79
2021/08/11 06:02:27;;;;;;;6.40;3.30;;;;;;;24.17;58.02;101192.64;1725584;81;20940;-79
2021/08/11 06:04:59;;;;;;;8.75;3.83;;;;;;;24.28;56.64;101192.73;1723947;81;21093;-80
2021/08/11 06:07:26;;;;;;;5.10;3.98;;;;;;;24.38;56.73;101192.80;1725585;83;20953;-74
2021/08/11 06:09:53;;;;;;;9.53;3.77;;;;;;;24.47;56.25;101184.30;1725384;81;20917;-74
2021/08/11 06:12:23;;;;;;;6.90;3.62;;;;;;;24.54;56.09;101183.38;1725292;82;21511;-76
2021/08/11 06:14:52;;;;;;;10.35;3.83;;;;;;;24.62;56.04;101179.84;1725187;83;21452;-75
2021/08/11 06:17:20;;;;;;;9.20;3.80;;;;;;;24.70;55.06;101179.25;1725047;81;21150;-75
2021/08/11 06:19:47;;;;;;;12.60;3.67;;;;;;;24.78;54.11;101185.00;1725290;81;20929;-75
2021/08/11 06:22:15;;;;;;;10.72;6.20;;;;;;;24.85;53.53;101178.00;1725227;83;20909;-75
2021/08/11 06:24:42;;;;;;;10.32;4.60;;;;;;;24.93;52.66;101175.75;1725268;81;20889;-77
2021/08/11 06:27:08;;;;;;;13.25;4.28;;;;;;;25.02;52.39;101175.98;1725376;83;21606;-76
2021/08/11 06:29:35;;;;;;;8.58;4.72;;;;;;;25.10;51.79;101169.27;1746048;80;21128;-77
2021/08/11 06:32:02;;;;;;;9.98;4.35;;;;;;;25.18;51.68;101167.33;1745780;82;21075;-76
2021/08/11 07:01:52;;;;;;;11.18;3.75;;;;;;;27.27;43.72;101148.27;1712563;81;23519;-77
2021/08/11 07:04:19;;;;;;;8.33;3.52;;;;;;;27.25;42.10;101151.65;1681444;85;21086;-81
2021/08/11 07:06:45;;;;;;;9.53;4.10;;;;;;;27.17;42.92;101157.12;1682094;85;21820;-82
2021/08/11 07:09:14;;;;;;;8.08;3.50;;;;;;;27.12;43.08;101142.25;1681747;85;21059;-74
2021/08/11 07:11:41;;;;;;;5.95;3.02;;;;;;;27.08;42.05;101143.66;1681957;85;20982;-75
2021/08/11 07:14:07;;;;;;;6.70;3.12;;;;;;;27.07;41.75;101149.49;1682187;85;20986;-84
2021/08/11 07:16:35;;;;;;;8.20;3.22;;;;;;;27.10;42.40;101148.27;1682707;85;20953;-81
2021/08/11 07:19:03;;;;;;;8.73;3.00;;;;;;;27.12;41.82;101147.05;1683487;84;21139;-81
2021/08/11 07:21:30;;;;;;;12.18;4.15;;;;;;;27.15;41.15;101140.52;1683985;85;21057;-76
2021/08/11 07:24:01;;;;;;;5.80;3.70;;;;;;;27.19;41.12;101145.75;1684308;85;21398;-83
2021/08/11 07:26:28;;;;;;;12.10;7.00;;;;;;;27.21;41.07;101139.22;1667027;85;21070;-80
2021/08/11 07:28:58;;;;;;;9.23;4.67;;;;;;;27.25;41.03;101136.98;1683935;84;21431;-76
2021/08/11 07:31:25;;;;;;;6.45;3.65;;;;;;;27.29;39.98;101146.20;1683877;85;21147;-76
2021/08/11 07:33:51;;;;;;;11.83;4.03;;;;;;;27.34;40.01;101133.95;1683783;84;20966;-77
2021/08/11 07:36:21;;;;;;;5.53;3.42;;;;;;;27.35;40.05;101133.42;1683619;85;20955;-76
2021/08/11 07:38:48;;;;;;;10.48;3.58;;;;;;;27.38;40.55;101130.89;1683640;85;21013;-78
2021/08/11 07:41:15;;;;;;;7.55;3.40;;;;;;;27.42;40.49;101124.94;1684362;85;20927;-84
2021/08/11 07:43:43;;;;;;;6.50;3.40;;;;;;;27.44;39.86;101132.28;1684495;85;21151;-80
2021/08/11 07:46:09;;;;;;;5.15;3.05;;;;;;;27.46;39.72;101130.73;1683280;85;20931;-78
2021/08/11 07:48:36;;;;;;;12.35;3.42;;;;;;;27.49;39.16;101127.66;1683008;84;21429;-76
2021/08/11 07:51:04;;;;;;;6.03;2.77;;;;;;;27.59;37.89;101132.94;1683173;85;20923;-73
2021/08/11 07:53:32;;;;;;;3.08;2.62;;;;;;;27.67;38.02;101138.58;1682521;85;20994;-76
2021/08/11 07:56:02;;;;;;;8.85;3.85;;;;;;;27.72;38.61;101132.98;1682713;84;22028;-75
2021/08/11 07:58:29;;;;;;;4.92;3.30;;;;;;;27.83;39.00;101132.88;1682873;85;21057;-74
2021/08/11 08:00:56;;;;;;;7.55;3.90;;;;;;;27.94;37.29;101133.62;1665039;85;20986;-74
2021/08/11 08:03:27;;;;;;;12.75;4.78;;;;;;;27.99;36.70;101129.83;1682553;85;20963;-74
2021/08/11 08:05:56;;;;;;;6.58;3.80;;;;;;;28.02;36.65;101128.59;1683020;85;20969;-77
2021/08/11 08:08:23;;;;;;;13.95;3.90;;;;;;;28.04;36.08;101125.23;1682607;85;21159;-78
2021/08/11 08:10:50;;;;;;;9.30;3.65;;;;;;;28.07;36.31;101116.84;1682621;85;20942;-76
2021/08/11 08:13:18;;;;;;;5.83;3.60;;;;;;;28.08;36.11;101121.97;1682434;85;20896;-76
2021/08/11 08:15:45;;;;;;;7.55;2.67;;;;;;;28.08;35.34;101121.97;1681131;85;21524;-78
2021/08/11 08:18:11;;;;;;;9.93;3.25;;;;;;;28.09;35.58;101124.13;1681285;85;20990;-80
2021/08/11 08:20:38;;;;;;;6.85;3.08;;;;;;;28.11;36.27;101117.55;1681391;85;21785;-72
2021/08/11 08:23:05;;;;;;;5.67;3.77;;;;;;;28.18;36.27;101121.55;1663485;85;21065;-73
2021/08/11 08:25:32;;;;;;;7.67;3.67;;;;;;;28.26;35.46;101124.87;1681121;85;20963;-81
2021/08/11 08:27:58;;;;;;;3.92;3.20;;;;;;;28.32;36.08;101121.37;1681084;85;20899;-73
2021/08/11 08:30:25;;;;;;;4.33;3.15;;;;;;;28.38;35.49;101113.88;1681328;85;20989;-76
2021/08/11 08:32:51;;;;;;;5.20;3.87;;;;;;;28.45;35.92;101119.72;1681392;85;21729;-79
2021/08/11 08:35:19;;;;;;;9.75;3.72;;;;;;;28.54;35.02;101125.14;1653018;85;21643;-80
2021/08/11 08:37:48;;;;;;;4.30;3.12;;;;;;;28.59;35.59;101115.48;1681040;85;20974;-75
2021/08/11 08:40:14;;;;;;;4.03;3.17;;;;;;;28.67;34.55;101115.81;1681142;85;20955;-76
2021/08/11 08:42:41;;;;;;;4.03;3.00;;;;;;;28.70;34.63;101116.22;1681158;85;20998;-82
2021/08/11 08:45:10;;;;;;;8.20;3.67;;;;;;;28.78;35.28;101107.17;1681019;85;21146;-83
2021/08/11 08:47:37;;;;;;;9.05;4.92;;;;;;;28.86;35.55;101110.44;1681129;85;20954;-78
2021/08/11 08:50:07;;;;;;;12.00;5.53;;;;;;;28.95;34.93;101104.84;1681351;85;21675;-80
2021/08/11 08:52:33;;;;;;;7.58;4.87;;;;;;;29.03;34.96;101099.28;1681139;85;20955;-75
2021/08/11 08:55:00;;;;;;;5.50;3.10;;;;;;;29.11;34.97;101099.03;1681038;85;21559;-79
2021/08/11 08:57:27;;;;;;;7.87;3.80;;;;;;;29.17;34.30;101095.00;1681244;85;21522;-73
2021/08/11 08:59:54;;;;;;;10.85;6.00;;;;;;;29.21;34.40;101092.22;1681182;85;21441;-77
2021/08/11 09:02:20;;;;;;;12.40;7.58;;;;;;;29.25;34.38;101084.63;1663190;85;20958;-76
2021/08/11 09:04:47;;;;;;;12.55;6.90;;;;;;;29.30;33.59;101083.45;1681324;85;20915;-79
2021/08/11 09:07:17;;;;;;;20.25;9.80;;;;;;;29.38;33.74;101085.91;1681232;85;20935;-83
2021/08/11 09:09:43;;;;;;;11.97;7.08;;;;;;;29.47;34.05;101086.46;1681232;84;21162;-82
2021/08/11 09:12:17;;;;;;;4.90;3.40;;;;;;;29.57;33.99;101082.81;1681088;85;20994;-77
2021/08/11 09:14:49;;;;;;;7.35;2.83;;;;;;;29.62;32.92;101080.30;1680886;83;20911;-78
2021/08/11 09:17:36;;;;;;;3.58;2.83;;;;;;;29.62;33.51;101074.95;1681084;85;20930;-81
2021/08/11 09:20:05;;;;;;;8.13;2.95;;;;;;;29.65;32.74;101074.52;1680965;84;21505;-76
2021/08/11 09:22:49;;;;;;;3.72;2.77;;;;;;;29.67;32.58;101075.14;1681002;85;21143;-78
2021/08/11 09:25:16;;;;;;;4.40;2.37;;;;;;;29.72;32.48;101080.13;1681068;85;20943;-78
2021/08/11 09:27:44;;;;;;;5.47;3.25;;;;;;;29.70;32.29;101082.22;1681346;85;21533;-75
2021/08/11 09:30:17;;;;;;;4.12;2.50;;;;;;;29.67;32.30;101073.28;1681093;85;21560;-78
2021/08/11 09:33:03;;;;;;;5.40;3.10;;;;;;;29.68;32.00;101071.41;1681425;85;20875;-80
2021/08/11 09:35:32;;;;;;;6.42;3.12;;;;;;;29.74;32.89;101084.73;1681301;85;21139;-78
2021/08/11 09:38:02;;;;;;;6.50;2.92;;;;;;;29.84;32.41;101081.10;1681247;85;20955;-77
2021/08/11 09:40:31;;;;;;;12.35;3.12;;;;;;;29.96;32.51;101085.77;1681111;85;21003;-81
2021/08/11 09:43:07;;;;;;;7.35;2.80;;;;;;;30.07;32.63;101087.20;1681029;85;21320;-80
2021/08/11 09:45:49;;;;;;;3.70;2.90;;;;;;;30.22;31.09;101092.22;1681098;85;20915;-74
2021/08/11 09:48:26;;;;;;;7.05;3.15;;;;;;;30.22;31.19;101082.33;1681043;85;21138;-81
2021/08/11 09:51:04;;;;;;;5.35;2.42;;;;;;;30.28;31.43;101085.47;1681117;84;20931;-76
2021/08/11 09:53:37;;;;;;;5.78;2.60;;;;;;;30.34;30.95;101079.77;1681096;85;21207;-73
2021/08/11 09:56:11;;;;;;;2.65;2.45;;;;;;;30.36;29.83;101077.69;1681212;85;21465;-78
2021/08/11 09:58:41;;;;;;;3.70;3.33;;;;;;;30.40;30.36;101070.38;1681216;85;20998;-79
2021/08/11 10:01:19;;;;;;;4.70;2.80;;;;;;;30.91;29.19;101082.08;1680867;85;21151;-75
2021/08/11 10:04:03;;;;;;;7.67;3.08;;;;;;;31.57;28.78;101074.55;1681028;85;21520;-78
2021/08/11 10:06:41;;;;;;;4.95;2.90;;;;;;;32.18;28.38;101063.48;1680862;85;21010;-76
2021/08/11 10:09:24;;;;;;;5.90;2.75;;;;;;;32.67;26.81;101059.52;1681638;85;21073;-78
2021/08/11 10:11:59;;;;;;;6.83;3.37;;;;;;;33.59;27.01;101047.31;1681169;85;20915;-76
2021/08/11 10:14:31;;;;;;;5.72;2.72;;;;;;;34.76;25.24;101058.83;1681244;85;21227;-77
2021/08/11 10:16:59;;;;;;;5.15;3.30;;;;;;;35.31;24.99;101065.44;1681240;85;21029;-79
2021/08/11 10:19:28;;;;;;;4.58;3.00;;;;;;;35.88;24.59;101056.25;1681367;85;21074;-77
2021/08/11 10:22:01;;;;;;;6.35;3.47;;;;;;;36.29;23.76;101057.37;1681065;85;20919;-81
2021/08/11 10:24:29;;;;;;;11.18;3.33;;;;;;;36.30;22.96;101044.95;1681224;85;21018;-78
2021/08/11 10:26:56;;;;;;;8.98;3.25;;;;;;;36.24;23.11;101051.41;1681175;85;21150;-79
2021/08/11 10:29:24;;;;;;;11.93;3.77;;;;;;;35.96;22.84;101043.63;1681040;85;21563;-80
2021/08/11 10:31:50;;;;;;;7.40;3.62;;;;;;;35.42;23.79;101049.08;1681185;85;20994;-86
2021/08/11 10:34:18;;;;;;;6.08;3.60;;;;;;;34.98;23.98;101049.67;1681156;85;21559;-77
2021/08/11 10:36:46;;;;;;;5.15;3.22;;;;;;;34.59;24.24;101046.72;1681142;85;20927;-81
2021/08/11 10:39:15;;;;;;;17.07;3.98;;;;;;;33.92;24.72;101050.06;1681977;85;21172;-75
2021/08/11 10:41:42;;;;;;;8.28;3.62;;;;;;;33.42;25.68;101048.10;1680988;85;20990;-75
2021/08/11 10:44:21;;;;;;;7.72;4.05;;;;;;;33.12;26.16;101053.46;1663564;85;21005;-76
2021/08/11 10:47:02;;;;;;;5.87;3.40;;;;;;;32.89;26.38;101059.17;1681202;85;21623;-77
2021/08/11 10:49:29;;;;;;;7.78;3.55;;;;;;;32.59;26.63;101059.05;1681637;85;20912;-75
2021/08/11 10:52:11;;;;;;;5.78;3.17;;;;;;;32.36;26.90;101047.23;1680984;85;21143;-78
2021/08/11 10:54:59;;;;;;;5.05;3.20;;;;;;;32.16;27.30;101048.14;1681371;85;20974;-78
2021/08/11 10:57:40;;;;;;;5.12;3.05;;;;;;;31.90;27.76;101044.01;1680790;85;20959;-80
2021/08/11 11:00:11;;;;;;;5.30;3.20;;;;;;;31.83;28.17;101034.42;1681060;85;20995;-86
2021/08/11 11:02:46;;;;;;;4.87;3.40;;;;;;;31.78;27.25;101033.76;1698600;84;20963;-75
2021/08/11 11:05:27;;;;;;;7.53;3.98;;;;;;;31.68;28.01;101037.55;1704058;84;21819;-78
2021/08/11 11:08:16;;;;;;;4.85;3.27;;;;;;;31.62;27.55;101044.36;1700785;84;21386;-78
2021/08/11 11:10:46;;;;;;;4.92;3.37;;;;;;;31.59;28.38;101040.80;1704027;84;20946;-76
2021/08/11 11:13:31;;;;;;;5.17;3.42;;;;;;;31.71;28.39;101033.59;1703426;84;21053;-79
2021/08/11 11:16:01;;;;;;;10.60;3.62;;;;;;;31.84;28.38;101038.23;1704062;84;21045;-79
2021/08/11 11:18:29;;;;;;;4.70;3.60;;;;;;;31.98;28.18;101043.66;1703968;84;21143;-78
2021/08/11 11:21:02;;;;;;;3.95;3.15;;;;;;;32.14;28.15;101038.14;1703967;84;21078;-80
2021/08/11 11:23:43;;;;;;;6.03;3.40;;;;;;;32.19;28.18;101038.80;1704139;84;20990;-86
2021/08/11 11:26:14;;;;;;;5.97;3.10;;;;;;;32.22;28.79;101044.52;1704140;84;21038;-76
2021/08/11 11:29:09;;;;;;;7.42;2.90;;;;;;;32.27;28.46;101031.72;1704244;84;20953;-76
2021/08/11 11:31:46;;;;;;;7.80;3.37;;;;;;;32.34;28.07;101036.45;1704392;84;21228;-82
2021/08/11 11:34:23;;;;;;;3.45;3.15;;;;;;;32.34;28.37;101037.27;1704056;84;21462;-73
2021/08/11 11:37:02;;;;;;;7.22;3.20;;;;;;;32.29;27.75;101041.72;1704105;84;21034;-76
2021/08/11 11:39:35;;;;;;;9.55;3.55;;;;;;;32.22;27.90;101040.49;1704218;84;20993;-77
2021/08/11 11:42:22;;;;;;;8.58;3.95;;;;;;;32.26;28.36;101036.81;1704154;84;20998;-83
2021/08/11 11:45:00;;;;;;;9.28;4.00;;;;;;;32.32;28.28;101041.25;1703325;83;21113;-83
2021/08/11 11:47:42;;;;;;;5.37;3.52;;;;;;;32.24;27.90;101035.69;1704060;84;20962;-80
2021/08/11 11:50:33;;;;;;;7.33;3.33;;;;;;;32.18;28.08;101031.27;1704173;84;21013;-80
2021/08/11 11:53:02;;;;;;;7.83;3.62;;;;;;;32.08;28.97;101031.54;1702713;83;21077;-73
2021/08/11 11:55:39;;;;;;;4.87;3.30;;;;;;;32.18;28.24;101039.31;1704067;84;21082;-81
2021/08/11 11:58:09;;;;;;;7.05;3.00;;;;;;;32.22;28.49;101028.41;1704005;84;21146;-78
2021/08/11 12:00:37;;;;;;;8.18;3.50;;;;;;;32.25;28.95;101023.91;1703737;84;21440;-76
2021/08/11 12:03:04;;;;;;;7.20;3.58;;;;;;;32.43;28.60;101020.25;1678526;84;20987;-80
2021/08/11 12:05:45;;;;;;;7.83;3.60;;;;;;;32.55;27.81;101014.88;1672337;85;21115;-79